sensor_id;sensor_type;location;lat;lon;timestamp;pressure;altitude;pressure_sealevel;temperature;humidity
18678;BME280;9469;51.114;13.914;2023-02-17T00:00:12;99258.03;;;8.31;98.88
18678;BME280;9469;51.114;13.914;2023-02-17T00:05:20;99259.34;;;8.39;98.92
18678;BME280;9469;51.114;13.914;2023-02-17T00:10:25;99258.84;;;8.32;99.28
18678;BME280;9469;51.114;13.914;2023-02-17T00:15:30;99268.88;;;8.35;99.26
18678;BME280;9469;51.114;13.914;2023-02-17T00:20:40;99260.94;;;8.35;99.72
18678;BME280;9469;51.114;13.914;2023-02-17T00:25:45;99257.75;;;8.38;100.00
18678;BME280;9469;51.114;13.914;2023-02-17T00:30:49;99253.75;;;8.45;99.49
18678;BME280;9469;51.114;13.914;2023-02-17T00:35:57;99251.81;;;8.61;98.71
18678;BME280;9469;51.114;13.914;2023-02-17T00:41:04;99243.84;;;8.61;98.67
18678;BME280;9469;51.114;13.914;2023-02-17T00:46:09;99248.38;;;8.55;99.01
18678;BME280;9469;51.114;13.914;2023-02-17T00:51:17;99250.78;;;8.52;98.98
18678;BME280;9469;51.114;13.914;2023-02-17T00:56:23;99245.41;;;8.67;98.41
18678;BME280;9469;51.114;13.914;2023-02-17T01:01:28;99234.50;;;8.68;98.39
18678;BME280;9469;51.114;13.914;2023-02-17T01:06:37;99233.28;;;8.56;99.91
18678;BME280;9469;51.114;13.914;2023-02-17T01:11:42;99229.81;;;8.55;99.79
18678;BME280;9469;51.114;13.914;2023-02-17T01:16:47;99233.25;;;8.61;100.00
18678;BME280;9469;51.114;13.914;2023-02-17T01:21:57;99224.50;;;8.60;100.00
18678;BME280;9469;51.114;13.914;2023-02-17T01:27:02;99218.09;;;8.66;100.00
18678;BME280;9469;51.114;13.914;2023-02-17T01:32:07;99209.28;;;8.76;99.22
18678;BME280;9469;51.114;13.914;2023-02-17T01:37:15;99205.56;;;8.77;99.01
18678;BME280;9469;51.114;13.914;2023-02-17T01:42:20;99203.47;;;8.74;99.13
18678;BME280;9469;51.114;13.914;2023-02-17T01:47:24;99201.56;;;8.80;98.69
18678;BME280;9469;51.114;13.914;2023-02-17T01:52:32;99194.97;;;8.72;98.67
18678;BME280;9469;51.114;13.914;2023-02-17T01:57:38;99193.34;;;8.81;98.45
18678;BME280;9469;51.114;13.914;2023-02-17T02:02:46;99180.09;;;8.76;98.44
18678;BME280;9469;51.114;13.914;2023-02-17T02:07:56;99158.38;;;8.74;98.54
18678;BME280;9469;51.114;13.914;2023-02-17T02:13:02;99152.69;;;8.91;97.39
18678;BME280;9469;51.114;13.914;2023-02-17T02:18:27;99146.91;;;8.84;98.07
18678;BME280;9469;51.114;13.914;2023-02-17T02:29:27;99119.56;;;8.83;99.75
18678;BME280;9469;51.114;13.914;2023-02-17T02:34:40;99118.50;;;8.84;100.00
18678;BME280;9469;51.114;13.914;2023-02-17T02:39:49;99107.94;;;8.79;100.00
18678;BME280;9469;51.114;13.914;2023-02-17T02:44:56;99087.66;;;8.93;100.00
18678;BME280;9469;51.114;13.914;2023-02-17T02:50:05;99090.31;;;8.93;100.00
18678;BME280;9469;51.114;13.914;2023-02-17T02:55:14;99078.59;;;8.94;100.00
18678;BME280;9469;51.114;13.914;2023-02-17T03:00:24;99085.00;;;8.93;100.00
18678;BME280;9469;51.114;13.914;2023-02-17T03:05:44;99084.75;;;8.90;100.00
18678;BME280;9469;51.114;13.914;2023-02-17T03:10:53;99076.94;;;8.75;100.00
18678;BME280;9469;51.114;13.914;2023-02-17T03:15:59;99080.66;;;8.74;100.00
18678;BME280;9469;51.114;13.914;2023-02-17T03:21:12;99075.38;;;8.68;100.00
18678;BME280;9469;51.114;13.914;2023-02-17T03:26:18;99070.69;;;8.60;100.00
18678;BME280;9469;51.114;13.914;2023-02-17T03:31:24;99058.88;;;8.77;100.00
18678;BME280;9469;51.114;13.914;2023-02-17T03:36:34;99059.75;;;8.67;100.00
18678;BME280;9469;51.114;13.914;2023-02-17T03:41:39;99056.56;;;8.70;100.00
18678;BME280;9469;51.114;13.914;2023-02-17T03:46:44;99056.75;;;8.79;100.00
18678;BME280;9469;51.114;13.914;2023-02-17T03:51:52;99051.94;;;8.81;100.00
18678;BME280;9469;51.114;13.914;2023-02-17T03:56:57;99042.94;;;8.82;100.00
18678;BME280;9469;51.114;13.914;2023-02-17T04:02:02;99041.66;;;8.74;100.00
18678;BME280;9469;51.114;13.914;2023-02-17T04:07:10;99023.78;;;8.85;100.00
18678;BME280;9469;51.114;13.914;2023-02-17T04:12:15;99037.41;;;8.73;100.00
18678;BME280;9469;51.114;13.914;2023-02-17T04:17:20;99034.91;;;8.58;100.00
18678;BME280;9469;51.114;13.914;2023-02-17T04:22:28;99045.69;;;8.38;100.00
18678;BME280;9469;51.114;13.914;2023-02-17T04:27:33;99040.19;;;8.29;100.00
18678;BME280;9469;51.114;13.914;2023-02-17T04:32:39;99039.53;;;8.04;100.00
18678;BME280;9469;51.114;13.914;2023-02-17T04:37:47;99037.09;;;8.12;100.00
18678;BME280;9469;51.114;13.914;2023-02-17T04:42:52;99031.69;;;7.88;100.00
18678;BME280;9469;51.114;13.914;2023-02-17T04:47:57;99022.06;;;8.03;100.00
18678;BME280;9469;51.114;13.914;2023-02-17T04:53:05;99023.78;;;7.83;100.00
18678;BME280;9469;51.114;13.914;2023-02-17T04:58:10;99012.16;;;7.79;100.00
18678;BME280;9469;51.114;13.914;2023-02-17T05:03:16;99010.72;;;7.92;100.00
18678;BME280;9469;51.114;13.914;2023-02-17T05:08:23;98995.19;;;7.80;100.00
18678;BME280;9469;51.114;13.914;2023-02-17T05:13:31;99004.94;;;7.85;100.00
18678;BME280;9469;51.114;13.914;2023-02-17T05:18:37;98997.38;;;7.68;100.00
18678;BME280;9469;51.114;13.914;2023-02-17T05:23:45;99009.16;;;7.91;100.00
18678;BME280;9469;51.114;13.914;2023-02-17T05:28:50;99007.91;;;7.78;100.00
18678;BME280;9469;51.114;13.914;2023-02-17T05:33:55;98997.81;;;7.80;100.00
18678;BME280;9469;51.114;13.914;2023-02-17T05:39:02;98995.94;;;7.86;100.00
18678;BME280;9469;51.114;13.914;2023-02-17T05:44:10;98995.09;;;7.95;100.00
18678;BME280;9469;51.114;13.914;2023-02-17T05:49:15;98987.66;;;7.97;100.00
18678;BME280;9469;51.114;13.914;2023-02-17T05:54:22;98990.81;;;8.00;100.00
18678;BME280;9469;51.114;13.914;2023-02-17T05:59:27;98987.09;;;8.01;100.00
18678;BME280;9469;51.114;13.914;2023-02-17T06:04:32;98997.16;;;8.04;100.00
18678;BME280;9469;51.114;13.914;2023-02-17T06:09:40;98989.34;;;8.17;100.00
18678;BME280;9469;51.114;13.914;2023-02-17T06:14:49;98990.50;;;8.06;100.00
18678;BME280;9469;51.114;13.914;2023-02-17T06:19:56;98990.19;;;8.13;100.00
18678;BME280;9469;51.114;13.914;2023-02-17T06:25:04;98987.78;;;8.16;100.00
18678;BME280;9469;51.114;13.914;2023-02-17T06:30:10;98986.56;;;8.37;100.00
18678;BME280;9469;51.114;13.914;2023-02-17T06:35:16;98991.66;;;8.34;100.00
18678;BME280;9469;51.114;13.914;2023-02-17T06:40:24;98993.97;;;8.40;100.00
18678;BME280;9469;51.114;13.914;2023-02-17T06:45:31;98987.91;;;8.35;100.00
18678;BME280;9469;51.114;13.914;2023-02-17T06:50:38;98985.97;;;8.45;100.00
18678;BME280;9469;51.114;13.914;2023-02-17T06:55:56;98975.31;;;8.50;100.00
18678;BME280;9469;51.114;13.914;2023-02-17T07:01:15;98961.78;;;8.52;100.00
18678;BME280;9469;51.114;13.914;2023-02-17T07:06:23;98975.31;;;8.50;100.00
18678;BME280;9469;51.114;13.914;2023-02-17T07:11:33;98979.00;;;8.54;100.00
18678;BME280;9469;51.114;13.914;2023-02-17T07:16:39;98976.50;;;8.68;100.00
18678;BME280;9469;51.114;13.914;2023-02-17T07:21:52;98973.88;;;8.63;100.00
18678;BME280;9469;51.114;13.914;2023-02-17T07:27:11;98974.81;;;8.77;100.00
18678;BME280;9469;51.114;13.914;2023-02-17T07:32:16;98974.47;;;8.84;100.00
18678;BME280;9469;51.114;13.914;2023-02-17T07:37:21;98968.19;;;8.75;100.00
18678;BME280;9469;51.114;13.914;2023-02-17T07:42:29;98962.38;;;8.73;100.00
18678;BME280;9469;51.114;13.914;2023-02-17T07:47:34;98962.50;;;8.86;100.00
18678;BME280;9469;51.114;13.914;2023-02-17T07:52:39;98956.34;;;8.91;100.00
18678;BME280;9469;51.114;13.914;2023-02-17T07:57:47;98950.31;;;8.85;100.00
18678;BME280;9469;51.114;13.914;2023-02-17T08:02:52;98953.88;;;8.99;100.00
18678;BME280;9469;51.114;13.914;2023-02-17T08:07:57;98954.91;;;8.98;100.00
18678;BME280;9469;51.114;13.914;2023-02-17T08:13:33;98957.31;;;9.00;100.00
18678;BME280;9469;51.114;13.914;2023-02-17T08:18:38;98965.78;;;9.02;100.00
18678;BME280;9469;51.114;13.914;2023-02-17T08:23:43;98967.50;;;9.11;100.00
18678;BME280;9469;51.114;13.914;2023-02-17T08:28:50;98960.63;;;9.10;100.00
18678;BME280;9469;51.114;13.914;2023-02-17T08:33:58;98959.53;;;9.11;100.00
18678;BME280;9469;51.114;13.914;2023-02-17T08:39:04;98948.41;;;9.09;100.00
18678;BME280;9469;51.114;13.914;2023-02-17T08:44:13;98946.44;;;9.20;100.00
18678;BME280;9469;51.114;13.914;2023-02-17T08:49:20;98955.25;;;9.15;100.00
18678;BME280;9469;51.114;13.914;2023-02-17T08:54:26;98956.28;;;9.19;100.00
18678;BME280;9469;51.114;13.914;2023-02-17T08:59:33;98963.16;;;9.39;100.00
18678;BME280;9469;51.114;13.914;2023-02-17T09:04:39;98949.19;;;9.33;100.00
18678;BME280;9469;51.114;13.914;2023-02-17T09:09:44;98934.25;;;9.37;100.00
18678;BME280;9469;51.114;13.914;2023-02-17T09:14:52;98917.25;;;9.38;100.00
18678;BME280;9469;51.114;13.914;2023-02-17T09:19:57;98927.72;;;9.49;100.00
18678;BME280;9469;51.114;13.914;2023-02-17T09:25:06;98918.03;;;9.58;100.00
18678;BME280;9469;51.114;13.914;2023-02-17T09:30:15;98917.97;;;9.63;100.00
18678;BME280;9469;51.114;13.914;2023-02-17T09:35:20;98927.31;;;9.79;100.00
18678;BME280;9469;51.114;13.914;2023-02-17T09:40:35;98930.03;;;9.74;100.00
18678;BME280;9469;51.114;13.914;2023-02-17T09:45:47;98917.09;;;9.86;100.00
18678;BME280;9469;51.114;13.914;2023-02-17T09:50:56;98901.53;;;9.93;100.00
18678;BME280;9469;51.114;13.914;2023-02-17T09:56:08;98889.09;;;10.07;100.00
18678;BME280;9469;51.114;13.914;2023-02-17T10:01:23;98885.81;;;10.15;100.00
18678;BME280;9469;51.114;13.914;2023-02-17T10:06:31;98876.88;;;10.38;100.00
18678;BME280;9469;51.114;13.914;2023-02-17T10:11:41;98865.66;;;10.41;100.00
18678;BME280;9469;51.114;13.914;2023-02-17T10:16:55;98862.19;;;10.41;100.00
18678;BME280;9469;51.114;13.914;2023-02-17T10:22:07;98875.97;;;10.43;100.00
18678;BME280;9469;51.114;13.914;2023-02-17T10:27:31;98876.28;;;10.41;100.00
18678;BME280;9469;51.114;13.914;2023-02-17T10:32:50;98860.91;;;10.52;100.00
18678;BME280;9469;51.114;13.914;2023-02-17T10:38:04;98839.94;;;10.50;100.00
18678;BME280;9469;51.114;13.914;2023-02-17T10:43:22;98816.59;;;10.61;100.00
18678;BME280;9469;51.114;13.914;2023-02-17T10:48:43;98806.06;;;10.69;100.00
18678;BME280;9469;51.114;13.914;2023-02-17T10:53:51;98804.75;;;10.80;100.00
18678;BME280;9469;51.114;13.914;2023-02-17T10:59:03;98801.75;;;10.96;100.00
18678;BME280;9469;51.114;13.914;2023-02-17T11:04:12;98785.78;;;10.96;100.00
18678;BME280;9469;51.114;13.914;2023-02-17T11:09:21;98775.47;;;10.80;100.00
18678;BME280;9469;51.114;13.914;2023-02-17T11:14:32;98755.28;;;10.79;100.00
18678;BME280;9469;51.114;13.914;2023-02-17T11:19:53;98753.03;;;10.73;100.00
18678;BME280;9469;51.114;13.914;2023-02-17T11:25:00;98747.25;;;10.57;100.00
18678;BME280;9469;51.114;13.914;2023-02-17T11:30:14;98732.88;;;10.45;100.00
18678;BME280;9469;51.114;13.914;2023-02-17T11:35:26;98710.44;;;10.37;100.00
18678;BME280;9469;51.114;13.914;2023-02-17T11:40:33;98704.91;;;10.34;100.00
18678;BME280;9469;51.114;13.914;2023-02-17T11:45:41;98707.69;;;10.42;100.00
18678;BME280;9469;51.114;13.914;2023-02-17T11:50:55;98699.19;;;10.40;100.00
18678;BME280;9469;51.114;13.914;2023-02-17T11:56:33;98702.31;;;10.69;100.00
18678;BME280;9469;51.114;13.914;2023-02-17T12:02:27;98683.91;;;10.81;100.00
18678;BME280;9469;51.114;13.914;2023-02-17T12:08:03;98672.69;;;10.85;100.00
18678;BME280;9469;51.114;13.914;2023-02-17T12:13:25;98660.22;;;10.94;100.00
18678;BME280;9469;51.114;13.914;2023-02-17T12:18:46;98660.19;;;11.16;100.00
18678;BME280;9469;51.114;13.914;2023-02-17T12:29:52;98630.66;;;11.26;100.00
18678;BME280;9469;51.114;13.914;2023-02-17T12:35:10;98621.81;;;11.47;100.00
18678;BME280;9469;51.114;13.914;2023-02-17T12:40:29;98615.44;;;11.57;100.00
18678;BME280;9469;51.114;13.914;2023-02-17T12:45:43;98592.66;;;11.73;100.00
18678;BME280;9469;51.114;13.914;2023-02-17T12:50:59;98590.78;;;11.82;100.00
18678;BME280;9469;51.114;13.914;2023-02-17T12:56:25;98587.78;;;11.75;100.00
18678;BME280;9469;51.114;13.914;2023-02-17T13:01:43;98588.72;;;11.79;100.00
18678;BME280;9469;51.114;13.914;2023-02-17T13:07:00;98576.03;;;11.76;100.00
18678;BME280;9469;51.114;13.914;2023-02-17T13:12:33;98583.25;;;11.84;100.00
18678;BME280;9469;51.114;13.914;2023-02-17T13:17:56;98550.66;;;12.04;100.00
18678;BME280;9469;51.114;13.914;2023-02-17T13:23:07;98565.88;;;12.12;100.00
18678;BME280;9469;51.114;13.914;2023-02-17T13:28:18;98538.13;;;12.13;100.00
18678;BME280;9469;51.114;13.914;2023-02-17T13:33:43;98533.25;;;12.15;100.00
18678;BME280;9469;51.114;13.914;2023-02-17T13:38:58;98538.28;;;12.17;100.00
18678;BME280;9469;51.114;13.914;2023-02-17T13:44:23;98528.25;;;12.14;100.00
18678;BME280;9469;51.114;13.914;2023-02-17T13:49:33;98527.78;;;12.20;100.00
18678;BME280;9469;51.114;13.914;2023-02-17T13:54:50;98528.88;;;12.19;100.00
18678;BME280;9469;51.114;13.914;2023-02-17T14:00:28;98522.59;;;12.15;100.00
18678;BME280;9469;51.114;13.914;2023-02-17T14:05:42;98513.34;;;12.13;100.00
18678;BME280;9469;51.114;13.914;2023-02-17T14:11:03;98505.66;;;12.11;100.00
18678;BME280;9469;51.114;13.914;2023-02-17T14:16:26;98502.53;;;12.18;100.00
18678;BME280;9469;51.114;13.914;2023-02-17T14:21:35;98503.31;;;12.18;100.00
18678;BME280;9469;51.114;13.914;2023-02-17T14:26:45;98497.66;;;12.29;100.00
18678;BME280;9469;51.114;13.914;2023-02-17T14:31:53;98490.75;;;12.36;100.00
18678;BME280;9469;51.114;13.914;2023-02-17T14:37:09;98480.41;;;12.35;100.00
18678;BME280;9469;51.114;13.914;2023-02-17T14:42:14;98467.66;;;12.40;100.00
18678;BME280;9469;51.114;13.914;2023-02-17T14:47:20;98465.31;;;12.39;100.00
18678;BME280;9469;51.114;13.914;2023-02-17T14:52:28;98468.94;;;12.34;100.00
18678;BME280;9469;51.114;13.914;2023-02-17T14:57:33;98464.53;;;12.38;100.00
18678;BME280;9469;51.114;13.914;2023-02-17T15:02:38;98454.78;;;12.42;100.00
18678;BME280;9469;51.114;13.914;2023-02-17T15:07:47;98452.59;;;12.44;100.00
18678;BME280;9469;51.114;13.914;2023-02-17T15:12:54;98474.56;;;12.50;100.00
18678;BME280;9469;51.114;13.914;2023-02-17T15:18:03;98473.16;;;12.44;100.00
18678;BME280;9469;51.114;13.914;2023-02-17T15:23:13;98475.19;;;12.47;100.00
18678;BME280;9469;51.114;13.914;2023-02-17T15:28:19;98490.13;;;12.39;100.00
18678;BME280;9469;51.114;13.914;2023-02-17T15:33:24;98496.69;;;12.42;100.00
18678;BME280;9469;51.114;13.914;2023-02-17T15:38:32;98484.94;;;12.34;100.00
18678;BME280;9469;51.114;13.914;2023-02-17T15:43:39;98484.28;;;12.37;100.00
18678;BME280;9469;51.114;13.914;2023-02-17T15:48:46;98472.69;;;12.33;100.00
18678;BME280;9469;51.114;13.914;2023-02-17T15:53:56;98481.66;;;12.29;100.00
18678;BME280;9469;51.114;13.914;2023-02-17T15:59:08;98497.66;;;12.29;100.00
18678;BME280;9469;51.114;13.914;2023-02-17T16:04:18;98489.19;;;12.27;100.00
18678;BME280;9469;51.114;13.914;2023-02-17T16:09:26;98482.59;;;12.15;100.00
18678;BME280;9469;51.114;13.914;2023-02-17T16:14:33;98473.66;;;12.29;100.00
18678;BME280;9469;51.114;13.914;2023-02-17T16:19:39;98480.88;;;12.19;100.00
18678;BME280;9469;51.114;13.914;2023-02-17T16:24:47;98472.72;;;12.24;100.00
18678;BME280;9469;51.114;13.914;2023-02-17T16:29:51;98465.63;;;12.29;100.00
18678;BME280;9469;51.114;13.914;2023-02-17T16:34:57;98445.59;;;12.22;100.00
18678;BME280;9469;51.114;13.914;2023-02-17T16:40:13;98463.16;;;12.15;100.00
18678;BME280;9469;51.114;13.914;2023-02-17T16:45:23;98481.97;;;12.18;100.00
18678;BME280;9469;51.114;13.914;2023-02-17T16:50:30;98471.78;;;12.20;100.00
18678;BME280;9469;51.114;13.914;2023-02-17T16:55:39;98455.94;;;12.15;100.00
18678;BME280;9469;51.114;13.914;2023-02-17T17:00:47;98464.72;;;12.16;100.00
18678;BME280;9469;51.114;13.914;2023-02-17T17:05:53;98449.34;;;12.13;100.00
18678;BME280;9469;51.114;13.914;2023-02-17T17:11:01;98459.88;;;12.09;100.00
18678;BME280;9469;51.114;13.914;2023-02-17T17:16:10;98454.06;;;12.16;100.00
18678;BME280;9469;51.114;13.914;2023-02-17T17:21:17;98461.91;;;12.21;100.00
18678;BME280;9469;51.114;13.914;2023-02-17T17:26:27;98474.28;;;12.26;100.00
18678;BME280;9469;51.114;13.914;2023-02-17T17:31:34;98500.00;;;12.30;100.00
18678;BME280;9469;51.114;13.914;2023-02-17T17:36:43;98490.09;;;12.31;100.00
18678;BME280;9469;51.114;13.914;2023-02-17T17:41:51;98486.69;;;12.30;100.00
18678;BME280;9469;51.114;13.914;2023-02-17T17:46:58;98499.38;;;12.33;100.00
18678;BME280;9469;51.114;13.914;2023-02-17T17:52:03;98500.91;;;12.51;100.00
18678;BME280;9469;51.114;13.914;2023-02-17T17:57:12;98526.63;;;12.56;100.00
18678;BME280;9469;51.114;13.914;2023-02-17T18:02:16;98526.97;;;12.54;100.00
18678;BME280;9469;51.114;13.914;2023-02-17T18:07:22;98542.66;;;12.47;100.00
18678;BME280;9469;51.114;13.914;2023-02-17T18:12:30;98553.19;;;12.09;100.00
18678;BME280;9469;51.114;13.914;2023-02-17T18:17:38;98565.81;;;11.70;100.00
18678;BME280;9469;51.114;13.914;2023-02-17T18:22:46;98587.81;;;11.44;100.00
18678;BME280;9469;51.114;13.914;2023-02-17T18:27:54;98590.06;;;11.20;100.00
18678;BME280;9469;51.114;13.914;2023-02-17T18:33:02;98587.94;;;11.00;100.00
18678;BME280;9469;51.114;13.914;2023-02-17T18:38:08;98603.22;;;10.95;100.00
18678;BME280;9469;51.114;13.914;2023-02-17T18:43:15;98591.75;;;10.86;100.00
18678;BME280;9469;51.114;13.914;2023-02-17T18:48:23;98598.53;;;10.92;100.00
18678;BME280;9469;51.114;13.914;2023-02-17T18:53:29;98597.91;;;10.95;100.00
18678;BME280;9469;51.114;13.914;2023-02-17T18:58:36;98607.09;;;10.89;100.00
18678;BME280;9469;51.114;13.914;2023-02-17T19:03:41;98614.50;;;10.92;100.00
18678;BME280;9469;51.114;13.914;2023-02-17T19:08:47;98609.78;;;10.89;100.00
18678;BME280;9469;51.114;13.914;2023-02-17T19:13:56;98628.28;;;10.94;100.00
18678;BME280;9469;51.114;13.914;2023-02-17T19:19:01;98631.31;;;11.01;100.00
18678;BME280;9469;51.114;13.914;2023-02-17T19:24:07;98623.91;;;10.98;100.00
18678;BME280;9469;51.114;13.914;2023-02-17T19:29:18;98621.38;;;10.93;100.00
18678;BME280;9469;51.114;13.914;2023-02-17T19:34:24;98633.00;;;10.97;100.00
18678;BME280;9469;51.114;13.914;2023-02-17T19:39:33;98635.34;;;10.98;100.00
18678;BME280;9469;51.114;13.914;2023-02-17T19:44:43;98635.16;;;10.95;100.00
18678;BME280;9469;51.114;13.914;2023-02-17T19:49:48;98648.19;;;10.96;100.00
18678;BME280;9469;51.114;13.914;2023-02-17T19:54:53;98645.22;;;10.98;100.00
18678;BME280;9469;51.114;13.914;2023-02-17T20:00:01;98631.31;;;11.01;100.00
18678;BME280;9469;51.114;13.914;2023-02-17T20:05:06;98623.69;;;11.08;100.00
18678;BME280;9469;51.114;13.914;2023-02-17T20:10:14;98629.16;;;11.11;100.00
18678;BME280;9469;51.114;13.914;2023-02-17T20:15:24;98629.97;;;11.12;100.00
18678;BME280;9469;51.114;13.914;2023-02-17T20:20:30;98657.38;;;11.12;100.00
18678;BME280;9469;51.114;13.914;2023-02-17T20:25:39;98658.63;;;11.15;100.00
18678;BME280;9469;51.114;13.914;2023-02-17T20:30:47;98672.06;;;11.10;100.00
18678;BME280;9469;51.114;13.914;2023-02-17T20:35:54;98660.31;;;11.11;100.00
18678;BME280;9469;51.114;13.914;2023-02-17T20:41:00;98678.00;;;11.07;100.00
18678;BME280;9469;51.114;13.914;2023-02-17T20:46:11;98672.56;;;11.12;100.00
18678;BME280;9469;51.114;13.914;2023-02-17T20:51:17;98673.16;;;11.09;100.00
18678;BME280;9469;51.114;13.914;2023-02-17T20:56:30;98671.41;;;11.04;100.00
18678;BME280;9469;51.114;13.914;2023-02-17T21:01:41;98672.25;;;10.91;100.00
18678;BME280;9469;51.114;13.914;2023-02-17T21:06:46;98673.94;;;10.87;100.00
18678;BME280;9469;51.114;13.914;2023-02-17T21:11:52;98689.72;;;10.83;100.00
18678;BME280;9469;51.114;13.914;2023-02-17T21:17:00;98692.63;;;10.73;100.00
18678;BME280;9469;51.114;13.914;2023-02-17T21:22:05;98706.72;;;10.74;100.00
18678;BME280;9469;51.114;13.914;2023-02-17T21:27:11;98711.34;;;10.68;100.00
18678;BME280;9469;51.114;13.914;2023-02-17T21:32:19;98737.97;;;10.68;100.00
18678;BME280;9469;51.114;13.914;2023-02-17T21:37:24;98740.63;;;10.68;100.00
18678;BME280;9469;51.114;13.914;2023-02-17T21:42:29;98751.66;;;10.75;100.00
18678;BME280;9469;51.114;13.914;2023-02-17T21:47:49;98764.94;;;10.75;100.00
18678;BME280;9469;51.114;13.914;2023-02-17T21:52:57;98770.25;;;10.75;100.00
18678;BME280;9469;51.114;13.914;2023-02-17T21:58:02;98789.97;;;10.61;100.00
18678;BME280;9469;51.114;13.914;2023-02-17T22:03:09;98800.59;;;10.06;100.00
18678;BME280;9469;51.114;13.914;2023-02-17T22:08:14;98832.06;;;9.86;100.00
18678;BME280;9469;51.114;13.914;2023-02-17T22:13:21;98828.28;;;9.73;100.00
18678;BME280;9469;51.114;13.914;2023-02-17T22:18:29;98841.44;;;9.65;100.00
18678;BME280;9469;51.114;13.914;2023-02-17T22:23:34;98839.25;;;9.53;100.00
18678;BME280;9469;51.114;13.914;2023-02-17T22:28:40;98836.88;;;9.52;100.00
18678;BME280;9469;51.114;13.914;2023-02-17T22:33:48;98847.09;;;9.45;100.00
18678;BME280;9469;51.114;13.914;2023-02-17T22:38:54;98852.41;;;9.45;100.00
18678;BME280;9469;51.114;13.914;2023-02-17T22:44:02;98865.81;;;9.34;100.00
18678;BME280;9469;51.114;13.914;2023-02-17T22:49:10;98869.56;;;9.33;100.00
18678;BME280;9469;51.114;13.914;2023-02-17T22:54:15;98868.25;;;9.31;100.00
18678;BME280;9469;51.114;13.914;2023-02-17T22:59:20;98872.78;;;9.30;100.00
18678;BME280;9469;51.114;13.914;2023-02-17T23:04:28;98882.38;;;9.26;100.00
18678;BME280;9469;51.114;13.914;2023-02-17T23:09:33;98890.34;;;9.26;100.00
18678;BME280;9469;51.114;13.914;2023-02-17T23:14:40;98897.72;;;9.29;100.00
18678;BME280;9469;51.114;13.914;2023-02-17T23:19:50;98913.03;;;9.37;100.00
18678;BME280;9469;51.114;13.914;2023-02-17T23:24:55;98904.63;;;9.30;100.00
18678;BME280;9469;51.114;13.914;2023-02-17T23:30:04;98895.00;;;9.34;100.00
18678;BME280;9469;51.114;13.914;2023-02-17T23:35:14;98922.00;;;9.42;100.00
18678;BME280;9469;51.114;13.914;2023-02-17T23:40:20;98921.00;;;9.37;100.00
18678;BME280;9469;51.114;13.914;2023-02-17T23:45:25;98912.53;;;9.35;100.00
18678;BME280;9469;51.114;13.914;2023-02-17T23:50:35;98921.06;;;9.32;100.00
18678;BME280;9469;51.114;13.914;2023-02-17T23:55:40;98927.66;;;9.35;100.00
